Time;durP1;ratioP1;P1;durP2;ratioP2;P2;SDS_P1;SDS_P2;PMS_P1;PMS_P2;Temp;Humidity;BMP_temperature;BMP_pressure;BME280_temperature;BME280_humidity;BME280_pressure;Samples;Min_cycle;Max_cycle;Signal;HPM_P1;HPM_P2
2022/03/02 00:02:11;;;;;;;10.80;8.00;;;;;;;;;;5006161;28;20613;-72
2022/03/02 00:04:37;;;;;;;9.77;6.80;;;;;;;;;;5008138;28;20187;-72
2022/03/02 00:07:03;;;;;;;12.97;7.90;;;;;;;;;;5008187;28;20298;-72
2022/03/02 00:09:30;;;;;;;11.60;7.50;;;;;;;;;;5008590;28;20682;-71
2022/03/02 00:11:57;;;;;;;12.40;8.67;;;;;;;;;;5003566;28;20191;-72
2022/03/02 00:14:23;;;;;;;20.87;11.10;;;;;;;;;;5000639;28;20199;-72
2022/03/02 00:16:50;;;;;;;16.17;10.57;;;;;;;;;;5010186;28;20706;-72
2022/03/02 00:19:16;;;;;;;16.10;10.47;;;;;;;;;;5008653;28;20180;-72
2022/03/02 00:21:42;;;;;;;15.60;10.80;;;;;;;;;;5021182;28;20190;-71
2022/03/02 00:24:08;;;;;;;17.73;11.47;;;;;;;;;;5007160;28;20634;-71
2022/03/02 00:26:34;;;;;;;17.63;11.47;;;;;;;;;;5006707;28;20202;-72
2022/03/02 00:29:01;;;;;;;16.97;11.87;;;;;;;;;;5005810;28;20200;-71
2022/03/02 00:31:28;;;;;;;16.97;12.17;;;;;;;;;;5000687;28;20689;-72
2022/03/02 00:33:54;;;;;;;17.13;11.10;;;;;;;;;;5004714;28;20266;-72
2022/03/02 00:36:20;;;;;;;18.53;11.00;;;;;;;;;;5008820;28;21179;-72
2022/03/02 00:38:46;;;;;;;16.70;11.50;;;;;;;;;;5010229;28;20280;-72
2022/03/02 00:41:12;;;;;;;15.93;10.67;;;;;;;;;;5009515;28;20274;-72
2022/03/02 00:43:38;;;;;;;15.23;10.23;;;;;;;;;;5007656;28;20221;-72
2022/03/02 00:46:05;;;;;;;17.57;11.03;;;;;;;;;;5004210;28;20195;-72
2022/03/02 00:48:31;;;;;;;14.17;10.20;;;;;;;;;;5002450;28;20563;-72
2022/03/02 00:50:57;;;;;;;16.47;11.57;;;;;;;;;;5010207;28;20266;-71
2022/03/02 00:53:23;;;;;;;16.20;10.57;;;;;;;;;;5005871;28;20574;-72
2022/03/02 00:55:49;;;;;;;14.07;9.83;;;;;;;;;;5008979;28;20217;-72
2022/03/02 00:58:16;;;;;;;15.10;9.87;;;;;;;;;;5011222;28;20262;-72
2022/03/02 01:00:42;;;;;;;15.50;10.80;;;;;;;;;;5006298;28;20266;-72
2022/03/02 01:03:08;;;;;;;17.97;11.57;;;;;;;;;;5000680;28;20270;-72
2022/03/02 01:05:34;;;;;;;18.50;11.80;;;;;;;;;;5008634;28;20662;-72
2022/03/02 01:08:01;;;;;;;18.43;12.53;;;;;;;;;;5005925;28;20215;-72
2022/03/02 01:10:27;;;;;;;18.57;12.07;;;;;;;;;;5007432;28;20253;-72
2022/03/02 01:12:53;;;;;;;22.00;12.27;;;;;;;;;;5006915;28;20693;-72
2022/03/02 01:15:19;;;;;;;17.07;10.93;;;;;;;;;;5004528;28;20198;-72
2022/03/02 01:17:46;;;;;;;19.07;12.13;;;;;;;;;;5008315;28;20236;-72
2022/03/02 01:20:12;;;;;;;17.23;11.40;;;;;;;;;;5001582;28;20627;-71
2022/03/02 01:22:39;;;;;;;16.57;11.00;;;;;;;;;;5005344;28;20203;-71
2022/03/02 01:25:07;;;;;;;13.60;9.63;;;;;;;;;;5011436;28;20187;-72
2022/03/02 01:27:33;;;;;;;14.40;9.80;;;;;;;;;;5008366;28;20230;-72
2022/03/02 01:29:59;;;;;;;14.10;10.07;;;;;;;;;;5001427;28;20192;-72
2022/03/02 01:32:25;;;;;;;16.57;11.00;;;;;;;;;;5003889;28;20191;-72
2022/03/02 01:34:52;;;;;;;14.83;10.67;;;;;;;;;;5005008;28;20175;-72
2022/03/02 01:37:18;;;;;;;16.03;10.97;;;;;;;;;;5000819;28;20714;-71
2022/03/02 01:39:45;;;;;;;16.53;10.80;;;;;;;;;;5011862;28;20187;-72
2022/03/02 01:42:11;;;;;;;15.83;10.97;;;;;;;;;;4995570;28;20221;-71
2022/03/02 01:44:38;;;;;;;14.80;9.93;;;;;;;;;;5001097;28;20270;-72
2022/03/02 01:47:05;;;;;;;15.87;10.37;;;;;;;;;;5005493;28;20663;-71
2022/03/02 01:49:31;;;;;;;17.73;10.67;;;;;;;;;;5008136;28;20221;-71
2022/03/02 01:51:58;;;;;;;16.77;10.70;;;;;;;;;;5004866;28;20187;-71
2022/03/02 01:54:24;;;;;;;14.07;10.00;;;;;;;;;;5006814;28;20211;-72
2022/03/02 01:56:50;;;;;;;16.83;10.87;;;;;;;;;;5009782;28;20262;-72
2022/03/02 01:59:16;;;;;;;12.93;9.77;;;;;;;;;;5010612;28;20179;-71
2022/03/02 02:01:43;;;;;;;16.33;9.97;;;;;;;;;;5008986;28;20626;-72
2022/03/02 02:04:09;;;;;;;16.37;10.60;;;;;;;;;;5002511;28;20186;-72
2022/03/02 02:06:35;;;;;;;14.90;9.93;;;;;;;;;;5004577;28;20218;-72
2022/03/02 02:09:03;;;;;;;15.87;10.23;;;;;;;;;;5008858;28;20249;-72
2022/03/02 02:11:30;;;;;;;16.03;10.87;;;;;;;;;;5007125;28;20191;-71
2022/03/02 02:13:56;;;;;;;14.60;10.33;;;;;;;;;;5011387;28;20183;-71
2022/03/02 02:16:23;;;;;;;14.60;10.37;;;;;;;;;;5005219;28;20725;-71
2022/03/02 02:19:08;;;;;;;14.10;9.20;;;;;;;;;;5008310;28;20189;-71
2022/03/02 02:21:35;;;;;;;14.93;10.00;;;;;;;;;;5005942;28;20184;-72
2022/03/02 02:24:01;;;;;;;14.77;10.27;;;;;;;;;;5010917;28;20290;-71
2022/03/02 02:26:27;;;;;;;15.43;10.33;;;;;;;;;;4994228;28;20203;-72
2022/03/02 02:28:55;;;;;;;14.77;10.20;;;;;;;;;;5008854;28;20178;-72
2022/03/02 02:31:21;;;;;;;19.10;11.07;;;;;;;;;;5006297;28;20253;-72
2022/03/02 02:33:48;;;;;;;15.17;11.07;;;;;;;;;;5006871;28;20635;-72
2022/03/02 02:36:15;;;;;;;18.33;11.70;;;;;;;;;;5005337;28;20203;-71
2022/03/02 02:38:41;;;;;;;14.47;10.47;;;;;;;;;;5010052;28;20289;-71
2022/03/02 02:41:08;;;;;;;14.10;9.80;;;;;;;;;;5023877;28;20210;-71
2022/03/02 02:43:34;;;;;;;13.43;9.87;;;;;;;;;;5020596;28;20187;-72
2022/03/02 02:46:00;;;;;;;16.33;9.67;;;;;;;;;;5007193;28;20194;-71
2022/03/02 02:48:26;;;;;;;16.03;10.07;;;;;;;;;;5006363;28;20560;-72
2022/03/02 02:50:52;;;;;;;15.90;9.67;;;;;;;;;;5003769;28;20186;-72
2022/03/02 02:53:18;;;;;;;17.03;10.10;;;;;;;;;;5004811;28;20600;-71
2022/03/02 02:55:45;;;;;;;14.23;9.80;;;;;;;;;;5006166;28;20207;-71
2022/03/02 02:58:12;;;;;;;15.33;9.97;;;;;;;;;;5004371;28;20211;-71
2022/03/02 03:00:40;;;;;;;16.07;9.73;;;;;;;;;;5010228;28;20186;-72
2022/03/02 03:03:07;;;;;;;15.40;10.43;;;;;;;;;;5004390;28;20195;-71
2022/03/02 03:05:34;;;;;;;16.40;11.00;;;;;;;;;;5009462;28;20207;-71
2022/03/02 03:08:01;;;;;;;16.80;11.00;;;;;;;;;;5008649;28;20207;-71
2022/03/02 03:10:27;;;;;;;17.00;11.43;;;;;;;;;;4999557;28;20270;-72
2022/03/02 03:12:53;;;;;;;17.00;11.37;;;;;;;;;;5008531;28;20666;-72
2022/03/02 03:15:20;;;;;;;18.07;11.53;;;;;;;;;;5003395;28;20274;-71
2022/03/02 03:17:47;;;;;;;18.30;11.70;;;;;;;;;;5003254;28;20253;-72
2022/03/02 03:20:14;;;;;;;15.97;10.53;;;;;;;;;;5003538;28;20187;-71
2022/03/02 03:22:40;;;;;;;16.17;11.20;;;;;;;;;;5008536;28;20190;-72
2022/03/02 03:25:07;;;;;;;18.80;11.10;;;;;;;;;;5005317;28;20602;-71
2022/03/02 03:27:34;;;;;;;15.73;10.60;;;;;;;;;;5006566;28;20282;-72
2022/03/02 03:30:00;;;;;;;19.63;12.53;;;;;;;;;;5008931;28;20219;-72
2022/03/02 03:32:26;;;;;;;17.43;11.57;;;;;;;;;;5005223;28;20682;-71
2022/03/02 03:34:53;;;;;;;15.80;11.03;;;;;;;;;;5005691;28;20526;-71
2022/03/02 03:37:20;;;;;;;16.77;11.73;;;;;;;;;;4992249;28;20215;-71
2022/03/02 03:39:46;;;;;;;17.27;12.00;;;;;;;;;;5008187;28;20191;-72
2022/03/02 03:42:12;;;;;;;16.67;11.37;;;;;;;;;;5008510;28;20267;-72
2022/03/02 03:44:38;;;;;;;16.90;11.53;;;;;;;;;;5007549;28;20186;-72
2022/03/02 03:47:06;;;;;;;17.00;11.97;;;;;;;;;;5008104;28;20262;-72
2022/03/02 03:49:32;;;;;;;17.63;11.57;;;;;;;;;;5006555;28;20194;-72
2022/03/02 03:51:58;;;;;;;18.80;12.57;;;;;;;;;;5007261;28;20184;-72
2022/03/02 03:54:25;;;;;;;17.57;11.97;;;;;;;;;;5005064;28;20184;-72
2022/03/02 03:56:51;;;;;;;17.63;11.63;;;;;;;;;;5004412;28;20215;-72
2022/03/02 03:59:17;;;;;;;16.10;11.00;;;;;;;;;;5000962;28;20200;-71
2022/03/02 04:01:44;;;;;;;16.77;11.80;;;;;;;;;;5003997;28;20187;-72
2022/03/02 04:04:10;;;;;;;18.73;11.80;;;;;;;;;;5008585;28;20521;-71
2022/03/02 04:06:36;;;;;;;17.63;11.40;;;;;;;;;;5007211;28;20748;-71
2022/03/02 04:09:03;;;;;;;18.77;12.07;;;;;;;;;;5007707;28;20218;-72
2022/03/02 04:11:30;;;;;;;16.17;10.93;;;;;;;;;;5009590;28;20442;-72
2022/03/02 04:13:56;;;;;;;19.23;11.83;;;;;;;;;;5007737;28;20555;-72
2022/03/02 04:16:22;;;;;;;17.33;11.30;;;;;;;;;;5007056;28;20212;-72
2022/03/02 04:18:48;;;;;;;18.20;11.43;;;;;;;;;;5007225;28;20245;-72
2022/03/02 04:21:15;;;;;;;19.23;12.13;;;;;;;;;;5004821;28;20431;-72
2022/03/02 04:23:41;;;;;;;17.27;11.83;;;;;;;;;;5006065;28;20211;-72
2022/03/02 04:26:07;;;;;;;17.73;12.00;;;;;;;;;;5009633;28;20469;-72
2022/03/02 04:28:33;;;;;;;16.30;11.30;;;;;;;;;;5011563;28;20183;-72
2022/03/02 04:30:59;;;;;;;19.07;11.83;;;;;;;;;;5012802;28;20207;-71
2022/03/02 04:33:25;;;;;;;17.73;12.07;;;;;;;;;;5027185;28;20442;-72
2022/03/02 04:35:52;;;;;;;16.10;11.57;;;;;;;;;;5012289;28;20202;-72
2022/03/02 04:38:18;;;;;;;18.50;11.53;;;;;;;;;;5012973;28;20450;-72
2022/03/02 04:40:44;;;;;;;16.97;11.67;;;;;;;;;;5001668;28;20179;-71
2022/03/02 04:43:10;;;;;;;16.83;11.23;;;;;;;;;;5005197;28;20187;-72
2022/03/02 04:45:36;;;;;;;20.10;12.60;;;;;;;;;;5010205;28;20254;-71
2022/03/02 04:48:02;;;;;;;15.37;11.30;;;;;;;;;;5011538;28;20203;-71
2022/03/02 04:50:29;;;;;;;16.43;11.53;;;;;;;;;;5006537;28;20225;-72
2022/03/02 04:52:56;;;;;;;17.87;11.63;;;;;;;;;;5010883;28;20186;-72
2022/03/02 04:55:22;;;;;;;19.17;11.93;;;;;;;;;;5008266;28;20199;-72
2022/03/02 04:57:49;;;;;;;16.87;11.53;;;;;;;;;;5004825;28;20578;-71
2022/03/02 05:00:17;;;;;;;20.23;11.60;;;;;;;;;;5003664;28;20190;-71
2022/03/02 05:02:44;;;;;;;16.47;12.13;;;;;;;;;;5004340;28;20188;-71
2022/03/02 05:05:11;;;;;;;19.00;12.20;;;;;;;;;;5012861;28;20253;-72
2022/03/02 05:07:37;;;;;;;19.00;11.90;;;;;;;;;;5008391;28;20211;-72
2022/03/02 05:10:04;;;;;;;17.90;11.70;;;;;;;;;;5006265;28;20237;-72
2022/03/02 05:12:31;;;;;;;18.73;11.60;;;;;;;;;;5000371;28;20176;-72
2022/03/02 05:14:57;;;;;;;17.37;11.53;;;;;;;;;;5010905;28;20171;-71
2022/03/02 05:17:23;;;;;;;17.00;10.97;;;;;;;;;;5005821;28;20218;-71
2022/03/02 05:19:50;;;;;;;17.60;11.87;;;;;;;;;;5004500;28;20244;-71
2022/03/02 05:22:16;;;;;;;18.00;11.50;;;;;;;;;;5009479;28;20190;-71
2022/03/02 05:24:42;;;;;;;13.53;9.20;;;;;;;;;;5004349;28;20198;-71
2022/03/02 05:27:09;;;;;;;10.63;7.90;;;;;;;;;;5009124;28;20203;-71
2022/03/02 05:29:36;;;;;;;16.73;10.23;;;;;;;;;;5012343;28;20697;-73
2022/03/02 05:32:03;;;;;;;17.53;11.60;;;;;;;;;;5006934;28;20187;-72
2022/03/02 05:34:29;;;;;;;18.27;10.97;;;;;;;;;;5010443;28;20676;-71
2022/03/02 05:36:56;;;;;;;17.73;12.20;;;;;;;;;;5009255;28;20372;-72
2022/03/02 05:39:25;;;;;;;17.23;11.50;;;;;;;;;;5011436;28;20187;-72
2022/03/02 05:41:52;;;;;;;16.73;11.27;;;;;;;;;;5007868;28;20179;-71
2022/03/02 05:44:18;;;;;;;15.97;10.80;;;;;;;;;;5010573;28;20325;-71
2022/03/02 05:46:45;;;;;;;18.63;11.30;;;;;;;;;;5006157;28;20206;-71
2022/03/02 05:49:13;;;;;;;18.37;11.43;;;;;;;;;;5007593;28;20247;-71
2022/03/02 05:51:40;;;;;;;15.83;11.33;;;;;;;;;;5007927;28;20187;-71
2022/03/02 05:54:08;;;;;;;18.80;11.77;;;;;;;;;;5012135;28;20446;-71
2022/03/02 05:56:34;;;;;;;14.43;10.27;;;;;;;;;;5007493;28;20211;-72
2022/03/02 05:59:00;;;;;;;15.43;10.20;;;;;;;;;;5008253;28;20266;-72
2022/03/02 06:01:26;;;;;;;16.47;10.23;;;;;;;;;;5007716;28;20187;-72
2022/03/02 06:03:53;;;;;;;22.93;14.23;;;;;;;;;;5007458;28;20591;-72
2022/03/02 06:06:19;;;;;;;19.73;14.03;;;;;;;;;;5009726;28;20207;-72
2022/03/02 06:08:46;;;;;;;23.50;13.93;;;;;;;;;;5002446;28;20207;-72
2022/03/02 06:11:13;;;;;;;20.00;13.83;;;;;;;;;;5001641;28;20206;-72
2022/03/02 06:13:39;;;;;;;20.83;13.00;;;;;;;;;;4992566;28;20607;-72
2022/03/02 06:16:05;;;;;;;20.27;13.00;;;;;;;;;;5007785;28;20203;-72
2022/03/02 06:18:31;;;;;;;21.33;14.13;;;;;;;;;;4999870;28;20626;-72
2022/03/02 06:21:00;;;;;;;20.23;13.07;;;;;;;;;;5005530;28;20449;-72
2022/03/02 06:23:27;;;;;;;21.23;13.70;;;;;;;;;;5006512;28;20198;-72
2022/03/02 06:25:54;;;;;;;19.07;13.17;;;;;;;;;;5007621;28;20631;-72
2022/03/02 06:28:20;;;;;;;25.33;15.17;;;;;;;;;;5008841;28;20253;-72
2022/03/02 06:30:46;;;;;;;22.53;14.37;;;;;;;;;;5010222;28;20186;-72
2022/03/02 06:33:14;;;;;;;22.20;14.07;;;;;;;;;;5010510;28;20191;-72
2022/03/02 06:35:40;;;;;;;21.30;14.13;;;;;;;;;;5009469;28;20659;-72
2022/03/02 06:38:06;;;;;;;26.17;15.13;;;;;;;;;;5003957;28;20219;-72
2022/03/02 06:40:32;;;;;;;20.47;13.70;;;;;;;;;;4998976;28;20179;-72
2022/03/02 06:43:00;;;;;;;20.77;13.63;;;;;;;;;;5008636;28;20187;-72
2022/03/02 06:45:35;;;;;;;21.23;13.77;;;;;;;;;;5006171;28;20176;-72
2022/03/02 06:48:06;;;;;;;22.90;13.90;;;;;;;;;;5000362;28;20211;-72
2022/03/02 06:50:32;;;;;;;20.30;13.80;;;;;;;;;;5016139;28;20525;-72
2022/03/02 06:53:01;;;;;;;23.37;13.53;;;;;;;;;;5007930;28;20266;-72
2022/03/02 06:55:30;;;;;;;19.50;13.27;;;;;;;;;;5006089;28;20190;-72
2022/03/02 06:57:57;;;;;;;20.87;13.03;;;;;;;;;;5002544;28;20618;-72
2022/03/02 07:00:24;;;;;;;19.93;14.13;;;;;;;;;;5010232;28;20224;-72
2022/03/02 07:02:52;;;;;;;20.77;13.00;;;;;;;;;;5005429;28;20199;-72
2022/03/02 07:05:20;;;;;;;21.63;14.77;;;;;;;;;;5002698;28;20214;-72
2022/03/02 07:07:46;;;;;;;19.97;13.97;;;;;;;;;;5007854;28;20748;-77
2022/03/02 07:10:12;;;;;;;22.37;14.17;;;;;;;;;;5008610;28;20262;-74
2022/03/02 07:12:39;;;;;;;22.93;14.60;;;;;;;;;;5007292;28;20183;-75
2022/03/02 07:15:06;;;;;;;19.17;14.30;;;;;;;;;;5009284;28;20225;-76
2022/03/02 07:17:32;;;;;;;23.57;14.67;;;;;;;;;;5023463;28;20585;-77
2022/03/02 07:20:00;;;;;;;19.27;13.90;;;;;;;;;;5008906;28;20171;-74
2022/03/02 07:22:38;;;;;;;21.47;14.30;;;;;;;;;;5009058;28;20270;-74
2022/03/02 07:25:06;;;;;;;23.13;13.80;;;;;;;;;;5011065;28;20555;-73
2022/03/02 07:27:32;;;;;;;22.40;14.33;;;;;;;;;;5008012;28;20584;-73
2022/03/02 07:29:59;;;;;;;22.03;14.77;;;;;;;;;;5006779;28;20210;-73
2022/03/02 07:32:31;;;;;;;21.43;15.17;;;;;;;;;;5002519;28;20183;-73
2022/03/02 07:35:00;;;;;;;26.53;16.07;;;;;;;;;;5006941;28;20529;-73
2022/03/02 07:37:27;;;;;;;24.80;14.60;;;;;;;;;;5008715;28;20304;-73
2022/03/02 07:39:53;;;;;;;21.90;14.60;;;;;;;;;;5010198;28;20566;-73
2022/03/02 07:42:20;;;;;;;21.93;14.60;;;;;;;;;;5008898;28;20194;-73
2022/03/02 07:44:47;;;;;;;21.40;14.27;;;;;;;;;;5002950;28;20179;-73
2022/03/02 07:47:14;;;;;;;20.07;14.80;;;;;;;;;;5004748;28;20702;-74
2022/03/02 07:49:40;;;;;;;22.13;14.43;;;;;;;;;;5017400;28;20225;-74
2022/03/02 07:52:07;;;;;;;21.53;14.40;;;;;;;;;;5000821;28;20186;-74
2022/03/02 07:54:37;;;;;;;20.97;14.50;;;;;;;;;;5001871;28;20742;-74
2022/03/02 07:57:04;;;;;;;23.40;14.50;;;;;;;;;;5017869;28;20713;-74
2022/03/02 07:59:42;;;;;;;20.63;13.90;;;;;;;;;;5011955;28;20197;-74
2022/03/02 08:02:09;;;;;;;18.73;13.20;;;;;;;;;;5010120;28;20187;-74
2022/03/02 08:04:36;;;;;;;19.00;13.73;;;;;;;;;;5012751;28;20185;-74
2022/03/02 08:07:03;;;;;;;20.87;14.53;;;;;;;;;;5012501;28;20309;-74
2022/03/02 08:09:31;;;;;;;24.83;15.37;;;;;;;;;;5010921;28;20245;-74
2022/03/02 08:11:58;;;;;;;21.33;15.00;;;;;;;;;;5029285;28;20183;-74
2022/03/02 08:14:24;;;;;;;24.90;15.73;;;;;;;;;;5012815;28;20724;-73
2022/03/02 08:16:54;;;;;;;22.40;15.00;;;;;;;;;;5012678;28;20703;-73
2022/03/02 08:19:21;;;;;;;22.80;14.60;;;;;;;;;;5012370;28;20192;-74
2022/03/02 08:21:51;;;;;;;20.30;14.00;;;;;;;;;;5012500;28;20206;-74
2022/03/02 08:24:18;;;;;;;22.57;14.93;;;;;;;;;;5025736;28;20709;-74
2022/03/02 08:26:48;;;;;;;19.10;13.97;;;;;;;;;;5015768;28;20281;-74
2022/03/02 08:29:14;;;;;;;23.37;15.40;;;;;;;;;;4993965;28;20210;-76
2022/03/02 08:31:41;;;;;;;20.80;14.80;;;;;;;;;;5012344;28;20665;-75
2022/03/02 08:34:08;;;;;;;26.90;16.30;;;;;;;;;;5012478;28;20223;-76
2022/03/02 08:36:35;;;;;;;23.07;15.17;;;;;;;;;;5008726;28;20571;-75
2022/03/02 08:39:02;;;;;;;23.47;16.10;;;;;;;;;;5005908;28;20659;-76
2022/03/02 08:41:28;;;;;;;24.77;15.83;;;;;;;;;;5007630;28;20194;-75
2022/03/02 08:43:57;;;;;;;22.40;16.13;;;;;;;;;;5005417;28;20187;-76
2022/03/02 08:46:24;;;;;;;21.07;15.40;;;;;;;;;;5005431;28;20206;-75
2022/03/02 08:48:50;;;;;;;21.87;15.67;;;;;;;;;;4986599;28;20198;-76
2022/03/02 08:51:18;;;;;;;23.07;15.73;;;;;;;;;;5005234;28;20198;-77
2022/03/02 08:53:44;;;;;;;25.03;16.57;;;;;;;;;;5008102;28;21336;-76
2022/03/02 08:56:11;;;;;;;21.33;14.37;;;;;;;;;;5007945;28;20683;-77
2022/03/02 08:58:38;;;;;;;23.03;16.23;;;;;;;;;;5004481;28;20240;-78
2022/03/02 09:01:04;;;;;;;21.97;15.20;;;;;;;;;;5007792;28;20651;-76
2022/03/02 09:03:33;;;;;;;23.57;16.03;;;;;;;;;;5010090;28;20282;-78
2022/03/02 09:06:00;;;;;;;21.53;15.30;;;;;;;;;;5014172;28;20198;-80
2022/03/02 09:08:27;;;;;;;21.80;15.77;;;;;;;;;;5013237;28;20226;-78
2022/03/02 09:10:54;;;;;;;23.63;15.63;;;;;;;;;;4995875;28;20206;-79
2022/03/02 09:13:20;;;;;;;22.67;15.17;;;;;;;;;;4995777;28;20184;-80
2022/03/02 09:15:46;;;;;;;23.40;15.40;;;;;;;;;;5011524;28;20194;-79
2022/03/02 09:18:13;;;;;;;21.97;15.53;;;;;;;;;;5012446;28;20674;-78
2022/03/02 09:20:41;;;;;;;22.27;16.00;;;;;;;;;;5007941;28;20183;-78
2022/03/02 09:23:07;;;;;;;23.20;16.63;;;;;;;;;;5010832;28;20254;-79
2022/03/02 09:25:37;;;;;;;28.17;18.73;;;;;;;;;;5013727;28;20345;-80
2022/03/02 09:28:04;;;;;;;31.33;18.67;;;;;;;;;;5008580;28;20214;-79
2022/03/02 09:30:31;;;;;;;26.27;18.00;;;;;;;;;;5010805;28;20187;-79
2022/03/02 09:32:59;;;;;;;24.00;16.87;;;;;;;;;;5008984;28;20586;-79
2022/03/02 09:35:26;;;;;;;21.10;15.10;;;;;;;;;;5011051;28;20183;-79
2022/03/02 09:37:54;;;;;;;20.17;15.13;;;;;;;;;;5010991;28;20222;-79
2022/03/02 09:40:23;;;;;;;22.50;16.40;;;;;;;;;;5008887;28;20199;-78
2022/03/02 09:43:00;;;;;;;23.20;15.83;;;;;;;;;;5011115;28;20183;-80
2022/03/02 09:45:27;;;;;;;23.00;15.53;;;;;;;;;;5012467;28;20178;-79
2022/03/02 09:47:56;;;;;;;23.37;15.67;;;;;;;;;;5028905;28;20213;-78
2022/03/02 09:50:23;;;;;;;20.63;14.93;;;;;;;;;;5014331;28;20191;-80
2022/03/02 09:52:51;;;;;;;20.00;14.90;;;;;;;;;;5013468;28;20262;-79
2022/03/02 09:55:23;;;;;;;19.97;14.27;;;;;;;;;;5009373;28;20293;-79
2022/03/02 09:57:50;;;;;;;21.83;15.70;;;;;;;;;;4995253;28;20246;-79
2022/03/02 10:00:21;;;;;;;22.70;16.77;;;;;;;;;;4977171;28;20270;-79
2022/03/02 10:02:49;;;;;;;24.03;15.97;;;;;;;;;;5008438;28;20651;-79
2022/03/02 10:05:17;;;;;;;22.07;15.50;;;;;;;;;;5012057;28;20188;-79
2022/03/02 10:07:46;;;;;;;22.97;14.67;;;;;;;;;;5010289;28;20226;-79
2022/03/02 10:10:13;;;;;;;21.13;14.47;;;;;;;;;;5011121;28;20217;-79
2022/03/02 10:12:41;;;;;;;22.50;14.87;;;;;;;;;;4993710;28;20192;-79
2022/03/02 10:15:09;;;;;;;21.33;14.30;;;;;;;;;;5008870;28;20237;-79
2022/03/02 10:17:37;;;;;;;20.63;13.70;;;;;;;;;;5010745;28;20222;-81
2022/03/02 10:20:07;;;;;;;18.73;13.73;;;;;;;;;;5012753;28;20199;-82
2022/03/02 10:22:52;;;;;;;23.80;15.57;;;;;;;;;;5013981;28;20179;-80
2022/03/02 10:25:18;;;;;;;23.83;15.80;;;;;;;;;;4993114;28;20257;-82
2022/03/02 10:28:04;;;;;;;22.30;14.60;;;;;;;;;;4992925;28;21469;-84
2022/03/02 10:30:31;;;;;;;22.93;15.63;;;;;;;;;;5028004;28;20195;-81
2022/03/02 10:33:02;;;;;;;22.87;15.77;;;;;;;;;;5011524;28;20237;-80
2022/03/02 10:35:29;;;;;;;22.10;15.13;;;;;;;;;;5013557;28;20214;-81
2022/03/02 10:38:03;;;;;;;21.73;15.67;;;;;;;;;;5009351;28;20230;-77
2022/03/02 10:40:32;;;;;;;20.33;15.00;;;;;;;;;;5013053;28;20185;-81
2022/03/02 10:43:04;;;;;;;24.00;15.87;;;;;;;;;;4993348;28;20720;-76
2022/03/02 10:45:36;;;;;;;23.40;15.83;;;;;;;;;;5011947;28;20198;-76
2022/03/02 10:48:22;;;;;;;23.97;16.40;;;;;;;;;;5006375;28;20207;-75
2022/03/02 10:50:52;;;;;;;24.83;16.53;;;;;;;;;;5003601;28;20201;-76
2022/03/02 10:53:19;;;;;;;21.23;16.17;;;;;;;;;;5006145;28;20187;-77
2022/03/02 10:55:47;;;;;;;26.43;16.13;;;;;;;;;;5001022;28;20863;-75
2022/03/02 10:58:22;;;;;;;22.73;17.03;;;;;;;;;;5005088;28;20203;-76
2022/03/02 11:00:48;;;;;;;24.47;16.87;;;;;;;;;;5008580;28;20557;-73
2022/03/02 11:03:15;;;;;;;24.37;16.17;;;;;;;;;;5003383;28;20187;-72
2022/03/02 11:05:41;;;;;;;19.57;15.07;;;;;;;;;;5004496;28;20187;-72
2022/03/02 11:08:08;;;;;;;21.03;14.77;;;;;;;;;;5003329;28;20234;-73
2022/03/02 11:10:37;;;;;;;22.43;14.10;;;;;;;;;;5004524;28;20187;-74
2022/03/02 11:13:15;;;;;;;18.70;12.50;;;;;;;;;;5005261;28;20187;-73
2022/03/02 11:15:46;;;;;;;18.07;12.63;;;;;;;;;;5005617;28;20245;-73
2022/03/02 11:18:16;;;;;;;20.10;13.43;;;;;;;;;;5004751;28;20218;-74
2022/03/02 11:20:52;;;;;;;17.00;13.10;;;;;;;;;;5006324;28;20642;-73
2022/03/02 11:23:24;;;;;;;20.53;12.93;;;;;;;;;;5005500;28;20205;-73
2022/03/02 11:25:51;;;;;;;22.63;14.33;;;;;;;;;;5005910;28;20742;-73
2022/03/02 11:28:19;;;;;;;18.27;14.10;;;;;;;;;;5004277;28;20190;-73
2022/03/02 11:30:50;;;;;;;18.10;13.40;;;;;;;;;;5004231;28;20183;-74
2022/03/02 11:33:17;;;;;;;18.80;13.77;;;;;;;;;;5006597;28;20179;-73
2022/03/02 11:35:46;;;;;;;16.10;12.90;;;;;;;;;;5011496;28;20183;-73
2022/03/02 11:38:12;;;;;;;20.77;13.67;;;;;;;;;;5011319;28;20208;-76
2022/03/02 11:40:40;;;;;;;16.60;13.03;;;;;;;;;;5006361;28;20266;-76
2022/03/02 11:43:21;;;;;;;19.07;12.93;;;;;;;;;;5008455;28;20203;-75
2022/03/02 11:45:48;;;;;;;17.53;13.27;;;;;;;;;;5013365;28;21071;-76
2022/03/02 11:48:15;;;;;;;15.87;12.20;;;;;;;;;;5012569;28;20237;-73
2022/03/02 11:51:01;;;;;;;16.23;12.60;;;;;;;;;;5012655;28;20179;-75
2022/03/02 11:53:35;;;;;;;15.70;12.33;;;;;;;;;;5010850;28;20193;-73
2022/03/02 11:56:02;;;;;;;19.20;12.97;;;;;;;;;;5011322;28;20855;-73
2022/03/02 11:58:35;;;;;;;17.63;13.17;;;;;;;;;;4994236;28;20191;-74
2022/03/02 12:01:05;;;;;;;18.83;13.00;;;;;;;;;;5014259;28;20186;-72
2022/03/02 12:03:31;;;;;;;16.13;12.83;;;;;;;;;;5015129;28;20179;-73
2022/03/02 12:06:07;;;;;;;19.03;14.13;;;;;;;;;;5028833;28;20191;-73
2022/03/02 12:08:34;;;;;;;17.83;13.33;;;;;;;;;;5013826;28;20272;-74
2022/03/02 12:11:02;;;;;;;17.60;13.23;;;;;;;;;;5010390;28;20171;-73
2022/03/02 12:13:29;;;;;;;20.20;13.33;;;;;;;;;;5013642;28;20183;-73
2022/03/02 12:15:55;;;;;;;16.80;12.70;;;;;;;;;;5012671;28;20194;-73
2022/03/02 12:18:23;;;;;;;18.57;12.90;;;;;;;;;;5011980;28;20202;-73
2022/03/02 12:20:54;;;;;;;18.10;13.60;;;;;;;;;;4993062;28;20561;-73
2022/03/02 12:23:22;;;;;;;17.77;12.53;;;;;;;;;;5013171;28;20175;-73
2022/03/02 12:25:48;;;;;;;20.80;13.13;;;;;;;;;;5011587;28;20300;-73
2022/03/02 12:28:15;;;;;;;20.77;13.50;;;;;;;;;;5009812;28;20218;-74
2022/03/02 12:30:42;;;;;;;17.33;13.53;;;;;;;;;;5007038;28;20546;-73
2022/03/02 12:33:08;;;;;;;16.67;13.50;;;;;;;;;;5011464;28;20229;-73
2022/03/02 12:35:36;;;;;;;18.53;13.07;;;;;;;;;;5007288;28;20262;-74
2022/03/02 12:38:04;;;;;;;18.77;13.57;;;;;;;;;;5008300;28;20369;-73
2022/03/02 12:40:39;;;;;;;15.40;12.30;;;;;;;;;;5007999;28;20180;-73
2022/03/02 12:43:06;;;;;;;18.87;13.40;;;;;;;;;;5005890;28;20179;-73
2022/03/02 12:45:36;;;;;;;20.70;14.37;;;;;;;;;;5007835;28;20188;-73
2022/03/02 12:48:02;;;;;;;16.03;13.07;;;;;;;;;;5011930;28;20302;-75
2022/03/02 12:50:29;;;;;;;20.07;14.33;;;;;;;;;;5009400;28;20190;-75
2022/03/02 12:52:56;;;;;;;20.20;12.80;;;;;;;;;;5012258;28;20270;-75
2022/03/02 12:55:22;;;;;;;16.73;12.67;;;;;;;;;;5009055;28;20319;-75
2022/03/02 12:57:49;;;;;;;20.73;13.07;;;;;;;;;;5024992;28;20341;-75
2022/03/02 13:00:17;;;;;;;18.47;12.03;;;;;;;;;;5010357;28;20233;-75
2022/03/02 13:02:44;;;;;;;17.40;12.70;;;;;;;;;;5012463;28;20781;-75
2022/03/02 13:05:17;;;;;;;18.97;12.97;;;;;;;;;;5010212;28;20182;-75
2022/03/02 13:07:53;;;;;;;16.17;12.63;;;;;;;;;;5010593;28;20299;-75
2022/03/02 13:10:26;;;;;;;19.10;13.63;;;;;;;;;;5010613;28;20281;-75
2022/03/02 13:12:53;;;;;;;17.10;12.73;;;;;;;;;;5010955;28;20252;-75
2022/03/02 13:15:21;;;;;;;18.00;13.53;;;;;;;;;;5010046;28;20191;-74
2022/03/02 13:17:47;;;;;;;19.63;12.87;;;;;;;;;;5010214;28;20682;-75
2022/03/02 13:20:18;;;;;;;16.70;12.57;;;;;;;;;;5008393;28;20194;-75
2022/03/02 13:22:44;;;;;;;18.77;13.13;;;;;;;;;;5006343;28;20183;-75
2022/03/02 13:25:11;;;;;;;18.73;12.73;;;;;;;;;;5009466;28;20183;-75
2022/03/02 13:27:56;;;;;;;17.30;12.73;;;;;;;;;;5007598;28;20214;-75
2022/03/02 13:30:22;;;;;;;16.73;11.77;;;;;;;;;;5010345;28;20214;-74
2022/03/02 13:32:55;;;;;;;17.23;12.50;;;;;;;;;;5021230;28;20186;-75
2022/03/02 13:35:22;;;;;;;19.83;13.57;;;;;;;;;;5008659;28;20214;-75
2022/03/02 13:37:59;;;;;;;19.30;13.43;;;;;;;;;;5009456;28;20915;-76
2022/03/02 13:40:34;;;;;;;16.70;13.20;;;;;;;;;;5009500;28;20194;-76
2022/03/02 13:43:07;;;;;;;13.73;11.97;;;;;;;;;;5008243;28;20681;-76
2022/03/02 13:45:56;;;;;;;13.87;12.30;;;;;;;;;;5009118;28;20757;-76
2022/03/02 13:48:24;;;;;;;16.43;12.30;;;;;;;;;;5003055;28;20246;-76
2022/03/02 13:51:04;;;;;;;14.17;12.03;;;;;;;;;;5009338;28;20282;-76
2022/03/02 13:53:31;;;;;;;13.07;11.33;;;;;;;;;;5007092;28;20562;-76
2022/03/02 13:56:09;;;;;;;14.03;12.47;;;;;;;;;;5005304;28;20190;-76
2022/03/02 13:58:36;;;;;;;13.40;11.50;;;;;;;;;;5008739;28;20183;-75
2022/03/02 14:01:13;;;;;;;14.27;12.37;;;;;;;;;;5007331;28;20836;-75
2022/03/02 14:03:43;;;;;;;14.03;12.53;;;;;;;;;;5010001;28;20179;-77
2022/03/02 14:06:11;;;;;;;13.33;11.93;;;;;;;;;;5007552;28;20558;-76
2022/03/02 14:08:50;;;;;;;12.90;11.60;;;;;;;;;;5007023;28;20198;-76
2022/03/02 14:11:31;;;;;;;13.97;12.27;;;;;;;;;;5007461;28;20541;-76
2022/03/02 14:13:58;;;;;;;12.87;11.57;;;;;;;;;;5013582;28;20713;-77
2022/03/02 14:16:24;;;;;;;13.20;11.80;;;;;;;;;;4997730;28;20215;-76
2022/03/02 14:19:02;;;;;;;13.80;11.50;;;;;;;;;;5011005;28;20677;-76
2022/03/02 14:21:28;;;;;;;15.87;12.33;;;;;;;;;;4999387;28;20642;-77
2022/03/02 14:23:56;;;;;;;14.17;12.00;;;;;;;;;;5003998;28;20253;-76